createdAt,value
2022-09-13T00:00:51.521Z,21.14
2022-09-13T00:01:51.472Z,21.11
2022-09-13T00:02:51.385Z,21.09
2022-09-13T00:03:51.335Z,21.14
2022-09-13T00:04:51.284Z,21.11
2022-09-13T00:05:51.233Z,21.08
2022-09-13T00:06:51.183Z,21.13
2022-09-13T00:07:51.134Z,21.13
2022-09-13T00:08:51.087Z,21.11
2022-09-13T00:09:51.034Z,21.13
2022-09-13T00:10:50.985Z,21.06
2022-09-13T00:11:50.940Z,21.08
2022-09-13T00:12:50.884Z,21.09
2022-09-13T00:13:50.837Z,21.08
2022-09-13T00:14:50.786Z,21.04
2022-09-13T00:15:50.828Z,21.11
2022-09-13T00:16:50.708Z,21.02
2022-09-13T00:17:50.636Z,21.09
2022-09-13T00:18:50.586Z,21.09
2022-09-13T00:19:50.537Z,21.02
2022-09-13T00:20:50.487Z,21.11
2022-09-13T00:21:50.439Z,21.09
2022-09-13T00:22:50.390Z,21.08
2022-09-13T00:23:50.337Z,21.11
2022-09-13T00:24:50.287Z,21.09
2022-09-13T00:25:50.238Z,21.06
2022-09-13T00:26:50.193Z,21.09
2022-09-13T00:27:50.138Z,21.14
2022-09-13T00:28:50.088Z,21.04
2022-09-13T00:29:50.053Z,21.09
2022-09-13T00:30:49.989Z,21.08
2022-09-13T00:31:49.998Z,21.11
2022-09-13T00:32:49.896Z,21.06
2022-09-13T00:33:49.841Z,21.08
2022-09-13T00:34:49.789Z,21.08
2022-09-13T00:35:49.742Z,21.06
2022-09-13T00:36:49.693Z,21.08
2022-09-13T00:37:49.642Z,21.08
2022-09-13T00:38:49.590Z,21.09
2022-09-13T00:39:50.016Z,21.05
2022-09-13T00:40:49.492Z,21.06
2022-09-13T00:41:49.443Z,21.09
2022-09-13T00:42:49.393Z,21.06
2022-09-13T00:43:49.571Z,21.09
2022-09-13T00:44:49.296Z,21.05
2022-09-13T00:45:49.289Z,21.08
2022-09-13T00:46:49.193Z,21.04
2022-09-13T00:47:49.147Z,21.06
2022-09-13T00:48:49.093Z,21.02
2022-09-13T00:49:49.043Z,21.02
2022-09-13T00:50:48.992Z,21.08
2022-09-13T00:51:48.945Z,21.01
2022-09-13T00:52:48.893Z,21.04
2022-09-13T00:53:48.909Z,21.11
2022-09-13T00:54:48.794Z,21.13
2022-09-13T00:55:48.745Z,21.02
2022-09-13T00:56:48.693Z,21.13
2022-09-13T00:57:48.645Z,21.13
2022-09-13T00:58:48.597Z,21.02
2022-09-13T00:59:48.545Z,21.06
2022-09-13T01:00:48.569Z,21.09
2022-09-13T01:01:48.469Z,21.08
2022-09-13T01:02:48.395Z,21.04
2022-09-13T01:03:48.527Z,21.08
2022-09-13T01:04:48.295Z,21.04
2022-09-13T01:05:48.246Z,21.09
2022-09-13T01:06:48.194Z,21.02
2022-09-13T01:07:48.146Z,20.96
2022-09-13T01:08:48.095Z,21.02
2022-09-13T01:09:48.046Z,20.98
2022-09-13T01:10:47.997Z,20.99
2022-09-13T01:11:47.948Z,20.98
2022-09-13T01:12:47.895Z,21.02
2022-09-13T01:13:47.989Z,21.01
2022-09-13T01:14:47.800Z,20.99
2022-09-13T01:15:47.747Z,20.99
2022-09-13T01:16:48.129Z,20.99
2022-09-13T01:17:47.649Z,21.02
2022-09-13T01:18:47.598Z,20.99
2022-09-13T01:19:47.557Z,20.98
2022-09-13T01:20:47.497Z,21.06
2022-09-13T01:21:47.448Z,20.93
2022-09-13T01:22:47.396Z,20.99
2022-09-13T01:23:47.438Z,20.96
2022-09-13T01:24:47.297Z,20.95
2022-09-13T01:25:47.248Z,20.90
2022-09-13T01:26:47.199Z,21.01
2022-09-13T01:27:47.146Z,21.01
2022-09-13T01:28:47.099Z,20.99
2022-09-13T01:29:47.048Z,20.90
2022-09-13T01:30:47.002Z,20.91
2022-09-13T01:31:46.978Z,21.01
2022-09-13T01:32:46.900Z,20.84
2022-09-13T01:33:46.848Z,20.91
2022-09-13T01:34:46.801Z,20.99
2022-09-13T01:35:46.754Z,21.01
2022-09-13T01:36:46.702Z,20.90
2022-09-13T01:37:46.647Z,20.90
2022-09-13T01:38:46.600Z,20.83
2022-09-13T01:39:46.578Z,20.91
2022-09-13T01:40:46.501Z,21.01
2022-09-13T01:41:46.447Z,20.96
2022-09-13T01:42:46.400Z,20.99
2022-09-13T01:43:46.349Z,20.89
2022-09-13T01:44:46.301Z,20.93
2022-09-13T01:45:46.257Z,20.84
2022-09-13T01:46:46.200Z,20.91
2022-09-13T01:47:46.150Z,20.95
2022-09-13T01:48:46.101Z,20.95
2022-09-13T01:49:46.048Z,20.87
2022-09-13T01:50:46.010Z,20.87
2022-09-13T01:51:45.954Z,20.87
2022-09-13T01:52:45.902Z,20.91
2022-09-13T01:53:45.888Z,20.84
2022-09-13T01:54:45.803Z,20.91
2022-09-13T01:55:45.751Z,20.84
2022-09-13T01:56:45.702Z,20.86
2022-09-13T01:57:45.649Z,20.83
2022-09-13T01:58:45.604Z,20.87
2022-09-13T01:59:45.550Z,20.84
2022-09-13T02:00:45.564Z,20.87
2022-09-13T02:01:45.460Z,20.83
2022-09-13T02:02:45.401Z,20.84
2022-09-13T02:03:45.395Z,20.90
2022-09-13T02:04:45.304Z,20.87
2022-09-13T02:05:45.250Z,20.84
2022-09-13T02:06:45.203Z,20.84
2022-09-13T02:07:45.239Z,20.89
2022-09-13T02:08:45.102Z,20.84
2022-09-13T02:09:45.051Z,20.84
2022-09-13T02:10:45.005Z,20.83
2022-09-13T02:11:44.951Z,20.87
2022-09-13T02:12:44.903Z,20.84
2022-09-13T02:13:44.851Z,20.90
2022-09-13T02:14:44.803Z,20.95
2022-09-13T02:15:44.753Z,20.87
2022-09-13T02:16:44.748Z,20.83
2022-09-13T02:17:44.650Z,20.84
2022-09-13T02:18:44.603Z,20.84
2022-09-13T02:19:44.551Z,20.79
2022-09-13T02:20:44.503Z,20.90
2022-09-13T02:21:44.456Z,20.90
2022-09-13T02:22:44.403Z,20.81
2022-09-13T02:23:44.445Z,20.86
2022-09-13T02:24:44.304Z,20.87
2022-09-13T02:25:44.250Z,20.79
2022-09-13T02:26:44.204Z,20.81
2022-09-13T02:27:44.152Z,20.81
2022-09-13T02:28:44.103Z,20.83
2022-09-13T02:29:44.051Z,20.86
2022-09-13T02:30:44.002Z,20.80
2022-09-13T02:31:43.991Z,20.87
2022-09-13T02:32:43.903Z,20.81
2022-09-13T02:33:43.852Z,20.79
2022-09-13T02:34:43.803Z,20.77
2022-09-13T02:35:43.751Z,20.81
2022-09-13T02:36:43.702Z,20.84
2022-09-13T02:37:43.654Z,20.87
2022-09-13T02:38:43.604Z,20.89
2022-09-13T02:39:43.631Z,20.84
2022-09-13T02:40:43.502Z,20.83
2022-09-13T02:41:43.451Z,20.84
2022-09-13T02:42:43.403Z,20.80
2022-09-13T02:43:43.353Z,20.87
2022-09-13T02:44:43.302Z,20.84
2022-09-13T02:45:43.300Z,20.86
2022-09-13T02:46:43.204Z,20.89
2022-09-13T02:47:43.150Z,20.84
2022-09-13T02:48:43.104Z,20.81
2022-09-13T02:49:43.056Z,20.84
2022-09-13T02:50:43.003Z,20.86
2022-09-13T02:51:42.951Z,20.81
2022-09-13T02:52:42.902Z,20.86
2022-09-13T02:53:42.865Z,20.84
2022-09-13T02:54:42.802Z,20.81
2022-09-13T02:55:42.763Z,20.74
2022-09-13T02:56:42.704Z,20.69
2022-09-13T02:57:42.650Z,20.68
2022-09-13T02:58:42.647Z,20.74
2022-09-13T02:59:42.553Z,20.83
2022-09-13T03:00:42.504Z,20.76
2022-09-13T03:01:42.449Z,20.76
2022-09-13T03:02:42.414Z,20.83
2022-09-13T03:03:42.352Z,20.81
2022-09-13T03:04:42.306Z,20.68
2022-09-13T03:05:42.250Z,20.79
2022-09-13T03:06:42.202Z,20.76
2022-09-13T03:07:42.152Z,20.71
2022-09-13T03:08:42.147Z,20.80
2022-09-13T03:09:42.049Z,20.81
2022-09-13T03:10:42.002Z,20.71
2022-09-13T03:11:42.044Z,20.80
2022-09-13T03:12:41.902Z,20.71
2022-09-13T03:13:41.852Z,20.72
2022-09-13T03:14:41.801Z,20.74
2022-09-13T03:15:41.750Z,20.72
2022-09-13T03:16:41.771Z,20.76
2022-09-13T03:17:41.652Z,20.68
2022-09-13T03:18:41.604Z,20.72
2022-09-13T03:19:41.550Z,20.74
2022-09-13T03:20:41.503Z,20.71
2022-09-13T03:21:41.450Z,20.69
2022-09-13T03:22:41.400Z,20.69
2022-09-13T03:23:41.350Z,20.74
2022-09-13T03:24:41.303Z,20.77
2022-09-13T03:25:41.248Z,20.72
2022-09-13T03:26:41.201Z,20.64
2022-09-13T03:27:41.154Z,20.71
2022-09-13T03:28:41.104Z,20.66
2022-09-13T03:29:41.048Z,20.71
2022-09-13T03:30:41.000Z,20.68
2022-09-13T03:31:41.019Z,20.65
2022-09-13T03:32:40.920Z,20.69
2022-09-13T03:33:40.849Z,20.61
2022-09-13T03:34:40.800Z,20.69
2022-09-13T03:35:40.747Z,20.66
2022-09-13T03:36:40.700Z,20.66
2022-09-13T03:37:40.648Z,20.65
2022-09-13T03:38:40.599Z,20.62
2022-09-13T03:39:40.610Z,20.68
2022-09-13T03:40:40.500Z,20.64
2022-09-13T03:41:40.447Z,20.64
2022-09-13T03:42:40.401Z,20.56
2022-09-13T03:43:40.354Z,20.65
2022-09-13T03:44:40.298Z,20.66
2022-09-13T03:45:40.308Z,20.61
2022-09-13T03:46:40.197Z,20.58
2022-09-13T03:47:40.148Z,20.61
2022-09-13T03:48:40.099Z,20.59
2022-09-13T03:49:40.045Z,20.64
2022-09-13T03:50:39.998Z,20.59
2022-09-13T03:51:39.947Z,20.59
2022-09-13T03:52:43.332Z,20.64
2022-09-13T03:53:39.849Z,20.54
2022-09-13T03:54:39.796Z,20.66
2022-09-13T03:55:39.752Z,20.58
2022-09-13T03:56:39.698Z,20.58
2022-09-13T03:57:39.649Z,20.54
2022-09-13T03:58:39.596Z,20.62
2022-09-13T03:59:39.549Z,20.59
2022-09-13T04:00:39.497Z,20.59
2022-09-13T04:01:39.443Z,20.59
2022-09-13T04:02:39.395Z,20.59
2022-09-13T04:03:39.343Z,20.59
2022-09-13T04:04:39.304Z,20.58
2022-09-13T04:05:39.243Z,20.53
2022-09-13T04:06:39.195Z,20.58
2022-09-13T04:07:39.143Z,20.50
2022-09-13T04:08:39.096Z,20.53
2022-09-13T04:09:39.043Z,20.54
2022-09-13T04:10:38.995Z,20.50
2022-09-13T04:11:38.946Z,20.49
2022-09-13T04:12:38.893Z,20.53
2022-09-13T04:13:38.842Z,20.53
2022-09-13T04:14:38.793Z,20.59
2022-09-13T04:15:38.832Z,20.51
2022-09-13T04:16:38.810Z,20.50
2022-09-13T04:17:38.640Z,20.49
2022-09-13T04:18:38.595Z,20.53
2022-09-13T04:19:38.541Z,20.47
2022-09-13T04:20:38.492Z,20.51
2022-09-13T04:21:38.440Z,20.47
2022-09-13T04:22:38.392Z,20.50
2022-09-13T04:23:38.340Z,20.59
2022-09-13T04:24:38.293Z,20.49
2022-09-13T04:25:38.244Z,20.49
2022-09-13T04:26:38.192Z,20.50
2022-09-13T04:27:38.139Z,20.54
2022-09-13T04:28:38.090Z,20.54
2022-09-13T04:29:38.039Z,20.49
2022-09-13T04:30:42.538Z,20.46
2022-09-13T04:31:38.082Z,20.42
2022-09-13T04:32:37.889Z,20.46
2022-09-13T04:33:37.836Z,20.51
2022-09-13T04:34:37.788Z,20.46
2022-09-13T04:35:37.736Z,20.50
2022-09-13T04:36:37.688Z,20.50
2022-09-13T04:37:37.636Z,20.41
2022-09-13T04:38:37.656Z,20.42
2022-09-13T04:39:37.536Z,20.49
2022-09-13T04:40:37.501Z,20.41
2022-09-13T04:41:37.434Z,20.47
2022-09-13T04:42:37.389Z,20.46
2022-09-13T04:43:37.335Z,20.39
2022-09-13T04:44:37.287Z,20.47
2022-09-13T04:45:37.296Z,20.39
2022-09-13T04:46:37.186Z,20.39
2022-09-13T04:47:37.163Z,20.39
2022-09-13T04:48:37.087Z,20.46
2022-09-13T04:49:37.033Z,20.46
2022-09-13T04:50:36.984Z,20.39
2022-09-13T04:51:36.936Z,20.39
2022-09-13T04:52:36.885Z,20.42
2022-09-13T04:53:36.832Z,20.39
2022-09-13T04:54:36.784Z,20.41
2022-09-13T04:55:36.734Z,20.41
2022-09-13T04:56:36.682Z,20.35
2022-09-13T04:57:36.631Z,20.43
2022-09-13T04:58:36.582Z,20.38
2022-09-13T04:59:36.530Z,20.31
2022-09-13T05:00:36.491Z,20.41
2022-09-13T05:01:36.465Z,20.31
2022-09-13T05:02:36.479Z,20.38
2022-09-13T05:03:36.337Z,20.41
2022-09-13T05:04:36.281Z,20.43
2022-09-13T05:05:36.228Z,20.35
2022-09-13T05:06:36.180Z,20.33
2022-09-13T05:07:36.129Z,20.33
2022-09-13T05:08:36.079Z,20.35
2022-09-13T05:09:36.027Z,20.28
2022-09-13T05:10:35.982Z,20.27
2022-09-13T05:11:35.932Z,20.35
2022-09-13T05:12:35.880Z,20.34
2022-09-13T05:13:35.829Z,20.31
2022-09-13T05:14:35.777Z,20.38
2022-09-13T05:15:35.727Z,20.34
2022-09-13T05:16:35.677Z,20.35
2022-09-13T05:17:35.626Z,20.38
2022-09-13T05:18:35.576Z,20.38
2022-09-13T05:19:35.586Z,20.39
2022-09-13T05:20:35.476Z,20.30
2022-09-13T05:21:35.423Z,20.38
2022-09-13T05:22:35.375Z,20.35
2022-09-13T05:23:35.323Z,20.38
2022-09-13T05:24:35.277Z,20.39
2022-09-13T05:25:35.226Z,20.33
2022-09-13T05:26:35.173Z,20.39
2022-09-13T05:27:35.122Z,20.38
2022-09-13T05:28:35.074Z,20.35
2022-09-13T05:29:35.023Z,20.38
2022-09-13T05:30:37.461Z,20.38
2022-09-13T05:31:35.009Z,20.35
2022-09-13T05:32:34.872Z,20.41
2022-09-13T05:33:34.819Z,20.39
2022-09-13T05:34:34.774Z,20.39
2022-09-13T05:35:34.726Z,20.38
2022-09-13T05:36:34.671Z,20.24
2022-09-13T05:37:34.617Z,20.31
2022-09-13T05:38:34.569Z,20.39
2022-09-13T05:39:53.998Z,20.27
2022-09-13T05:40:34.517Z,20.33
2022-09-13T05:41:34.415Z,20.30
2022-09-13T05:42:34.368Z,20.33
2022-09-13T05:43:34.317Z,20.28
2022-09-13T05:44:34.266Z,20.31
2022-09-13T05:45:34.216Z,20.25
2022-09-13T05:46:34.181Z,20.25
2022-09-13T05:47:34.117Z,20.27
2022-09-13T05:48:34.065Z,20.24
2022-09-13T05:49:34.014Z,20.27
2022-09-13T05:50:57.251Z,20.25
2022-09-13T05:51:33.919Z,20.27
2022-09-13T05:52:33.868Z,20.28
2022-09-13T05:53:33.812Z,20.27
2022-09-13T05:54:33.763Z,20.34
2022-09-13T05:55:33.712Z,20.27
2022-09-13T05:56:33.665Z,20.24
2022-09-13T05:57:33.613Z,20.21
2022-09-13T05:58:33.565Z,20.25
2022-09-13T05:59:33.512Z,20.25
2022-09-13T06:00:33.459Z,20.24
2022-09-13T06:01:33.498Z,20.20
2022-09-13T06:02:33.395Z,20.16
2022-09-13T06:03:33.311Z,20.30
2022-09-13T06:04:33.259Z,20.25
2022-09-13T06:05:33.209Z,20.20
2022-09-13T06:06:33.156Z,20.24
2022-09-13T06:07:33.219Z,20.27
2022-09-13T06:08:33.056Z,20.28
2022-09-13T06:09:33.008Z,20.27
2022-09-13T06:10:32.954Z,20.24
2022-09-13T06:11:32.907Z,20.18
2022-09-13T06:12:32.854Z,20.21
2022-09-13T06:13:32.805Z,20.24
2022-09-13T06:14:32.753Z,20.23
2022-09-13T06:15:32.706Z,20.30
2022-09-13T06:16:32.706Z,20.27
2022-09-13T06:17:32.602Z,20.20
2022-09-13T06:18:32.551Z,20.21
2022-09-13T06:19:32.506Z,20.28
2022-09-13T06:20:32.450Z,20.24
2022-09-13T06:21:32.400Z,20.21
2022-09-13T06:22:32.352Z,20.28
2022-09-13T06:23:32.306Z,20.25
2022-09-13T06:24:32.248Z,20.24
2022-09-13T06:25:32.205Z,20.10
2022-09-13T06:26:32.149Z,20.25
2022-09-13T06:27:32.100Z,20.30
2022-09-13T06:28:35.452Z,20.30
2022-09-13T06:29:31.996Z,20.30
2022-09-13T06:30:31.945Z,20.23
2022-09-13T06:31:31.941Z,20.24
2022-09-13T06:32:31.846Z,20.23
2022-09-13T06:33:31.798Z,20.25
2022-09-13T06:34:31.747Z,20.27
2022-09-13T06:35:31.697Z,20.23
2022-09-13T06:36:31.643Z,20.31
2022-09-13T06:37:31.593Z,20.16
2022-09-13T06:38:31.547Z,20.27
2022-09-13T06:39:31.500Z,20.28
2022-09-13T06:40:31.490Z,20.20
2022-09-13T06:41:31.392Z,20.28
2022-09-13T06:42:31.341Z,20.30
2022-09-13T06:43:31.293Z,20.31
2022-09-13T06:44:31.240Z,20.25
2022-09-13T06:45:31.193Z,20.27
2022-09-13T06:46:31.217Z,20.34
2022-09-13T06:47:31.089Z,20.30
2022-09-13T06:48:31.041Z,20.25
2022-09-13T06:49:30.988Z,20.27
2022-09-13T06:50:30.939Z,20.27
2022-09-13T06:51:30.889Z,20.21
2022-09-13T06:52:30.837Z,20.25
2022-09-13T06:53:30.786Z,20.21
2022-09-13T06:54:30.735Z,20.28
2022-09-13T06:55:30.690Z,20.25
2022-09-13T06:56:30.634Z,20.23
2022-09-13T06:57:30.584Z,20.30
2022-09-13T06:58:30.533Z,20.18
2022-09-13T06:59:30.484Z,20.27
2022-09-13T07:00:30.433Z,20.24
2022-09-13T07:01:30.532Z,20.30
2022-09-13T07:02:30.333Z,20.25
2022-09-13T07:03:30.285Z,20.30
2022-09-13T07:04:30.231Z,20.23
2022-09-13T07:05:30.181Z,20.27
2022-09-13T07:06:30.129Z,20.27
2022-09-13T07:07:30.080Z,20.15
2022-09-13T07:08:30.088Z,20.27
2022-09-13T07:09:29.981Z,20.13
2022-09-13T07:10:29.928Z,20.27
2022-09-13T07:11:29.886Z,20.27
2022-09-13T07:12:29.826Z,20.15
2022-09-13T07:13:29.777Z,20.24
2022-09-13T07:14:29.730Z,20.21
2022-09-13T07:15:29.732Z,20.30
2022-09-13T07:16:29.628Z,20.23
2022-09-13T07:17:31.404Z,20.12
2022-09-13T07:18:29.527Z,20.23
2022-09-13T07:19:29.484Z,20.16
2022-09-13T07:20:29.422Z,20.23
2022-09-13T07:21:29.376Z,20.24
2022-09-13T07:22:29.321Z,20.20
2022-09-13T07:23:29.272Z,20.23
2022-09-13T07:24:29.222Z,20.16
2022-09-13T07:25:29.171Z,20.23
2022-09-13T07:26:29.123Z,20.21
2022-09-13T07:27:29.077Z,20.27
2022-09-13T07:28:32.259Z,20.28
2022-09-13T07:29:28.977Z,20.28
2022-09-13T07:30:28.917Z,20.30
2022-09-13T07:31:28.992Z,20.31
2022-09-13T07:32:28.817Z,20.27
2022-09-13T07:33:28.785Z,20.33
2022-09-13T07:34:28.719Z,20.23
2022-09-13T07:35:28.669Z,20.20
2022-09-13T07:36:28.615Z,20.27
2022-09-13T07:37:28.565Z,20.21
2022-09-13T07:38:28.513Z,20.20
2022-09-13T07:39:28.471Z,20.33
2022-09-13T07:40:28.414Z,20.30
2022-09-13T07:41:28.364Z,20.33
2022-09-13T07:42:28.313Z,20.30
2022-09-13T07:43:28.281Z,20.33
2022-09-13T07:44:28.217Z,20.30
2022-09-13T07:45:28.161Z,20.35
2022-09-13T07:46:28.181Z,20.35
2022-09-13T07:47:28.062Z,20.28
2022-09-13T07:48:32.756Z,20.38
2022-09-13T07:49:27.962Z,20.38
2022-09-13T07:50:27.913Z,20.33
2022-09-13T07:51:27.861Z,20.35
2022-09-13T07:52:27.809Z,20.38
2022-09-13T07:53:27.759Z,20.28
2022-09-13T07:54:27.706Z,20.35
2022-09-13T07:55:27.661Z,20.39
2022-09-13T07:56:27.606Z,20.34
2022-09-13T07:57:27.559Z,20.38
2022-09-13T07:58:27.505Z,20.35
2022-09-13T07:59:30.172Z,20.35
2022-09-13T08:00:27.405Z,20.38
2022-09-13T08:01:27.425Z,20.38
2022-09-13T08:02:27.399Z,20.34
2022-09-13T08:03:27.255Z,20.31
2022-09-13T08:04:27.203Z,20.31
2022-09-13T08:05:27.155Z,20.39
2022-09-13T08:06:27.101Z,20.38
2022-09-13T08:07:27.054Z,20.41
2022-09-13T08:08:27.000Z,20.33
2022-09-13T08:09:26.952Z,20.41
2022-09-13T08:10:26.899Z,20.33
2022-09-13T08:11:26.851Z,20.39
2022-09-13T08:12:26.811Z,20.46
2022-09-13T08:13:26.750Z,20.33
2022-09-13T08:14:26.697Z,20.38
2022-09-13T08:15:26.705Z,20.34
2022-09-13T08:16:26.598Z,20.46
2022-09-13T08:17:26.548Z,20.46
2022-09-13T08:18:26.496Z,20.30
2022-09-13T08:19:26.447Z,20.35
2022-09-13T08:20:26.397Z,20.41
2022-09-13T08:21:26.346Z,20.41
2022-09-13T08:22:26.294Z,20.38
2022-09-13T08:23:26.273Z,20.42
2022-09-13T08:24:26.195Z,20.41
2022-09-13T08:25:26.144Z,20.38
2022-09-13T08:26:26.113Z,20.46
2022-09-13T08:27:26.044Z,20.51
2022-09-13T08:28:27.822Z,20.41
2022-09-13T08:29:25.942Z,20.47
2022-09-13T08:30:25.891Z,20.50
2022-09-13T08:31:25.909Z,20.47
2022-09-13T08:32:25.792Z,20.41
2022-09-13T08:33:25.743Z,20.50
2022-09-13T08:34:25.692Z,20.46
2022-09-13T08:35:25.643Z,20.49
2022-09-13T08:36:25.590Z,20.46
2022-09-13T08:37:25.540Z,20.47
2022-09-13T08:38:25.489Z,20.51
2022-09-13T08:39:25.871Z,20.56
2022-09-13T08:40:25.446Z,20.47
2022-09-13T08:41:25.339Z,20.51
2022-09-13T08:42:25.286Z,20.47
2022-09-13T08:43:25.238Z,20.47
2022-09-13T08:44:25.186Z,20.56
2022-09-13T08:45:25.135Z,20.53
2022-09-13T08:46:25.111Z,20.50
2022-09-13T08:47:25.131Z,20.50
2022-09-13T08:48:24.989Z,20.51
2022-09-13T08:49:24.935Z,20.51
2022-09-13T08:50:24.884Z,20.54
2022-09-13T08:51:24.837Z,20.58
2022-09-13T08:52:24.785Z,20.51
2022-09-13T08:53:24.732Z,20.61
2022-09-13T08:54:24.683Z,20.47
2022-09-13T08:55:24.643Z,20.53
2022-09-13T08:56:24.583Z,20.53
2022-09-13T08:57:24.540Z,20.56
2022-09-13T08:58:24.481Z,20.59
2022-09-13T08:59:24.435Z,20.61
2022-09-13T09:00:24.384Z,20.59
2022-09-13T09:01:24.415Z,20.51
2022-09-13T09:02:24.314Z,20.53
2022-09-13T09:03:24.250Z,20.62
2022-09-13T09:04:24.182Z,20.59
2022-09-13T09:05:24.130Z,20.59
2022-09-13T09:06:24.078Z,20.64
2022-09-13T09:07:24.028Z,20.66
2022-09-13T09:08:24.064Z,20.64
2022-09-13T09:09:23.944Z,20.65
2022-09-13T09:10:23.876Z,20.61
2022-09-13T09:11:23.827Z,20.65
2022-09-13T09:12:23.775Z,20.59
2022-09-13T09:13:24.659Z,20.59
2022-09-13T09:14:23.675Z,20.62
2022-09-13T09:15:23.628Z,20.65
2022-09-13T09:16:23.574Z,20.62
2022-09-13T09:17:23.524Z,20.64
2022-09-13T09:18:23.473Z,20.61
2022-09-13T09:19:23.429Z,20.62
2022-09-13T09:20:23.374Z,20.64
2022-09-13T09:21:23.326Z,20.71
2022-09-13T09:22:23.277Z,20.59
2022-09-13T09:23:23.224Z,20.72
2022-09-13T09:24:23.180Z,20.68
2022-09-13T09:25:23.124Z,20.62
2022-09-13T09:26:23.071Z,20.74
2022-09-13T09:27:23.023Z,20.68
2022-09-13T09:28:22.971Z,20.65
2022-09-13T09:29:25.091Z,20.69
2022-09-13T09:30:22.871Z,20.69
2022-09-13T09:31:22.901Z,20.64
2022-09-13T09:32:22.771Z,20.69
2022-09-13T09:33:22.720Z,20.77
2022-09-13T09:34:22.669Z,20.69
2022-09-13T09:35:22.626Z,20.68
2022-09-13T09:36:22.573Z,20.72
2022-09-13T09:37:22.526Z,20.74
2022-09-13T09:38:22.468Z,20.76
2022-09-13T09:39:22.420Z,20.72
2022-09-13T09:40:22.445Z,20.68
2022-09-13T09:41:22.317Z,20.77
2022-09-13T09:42:22.270Z,20.79
2022-09-13T09:43:22.218Z,20.76
2022-09-13T09:44:22.166Z,20.66
2022-09-13T09:45:22.132Z,20.77
2022-09-13T09:46:22.121Z,20.76
2022-09-13T09:47:25.949Z,20.71
2022-09-13T09:48:21.965Z,20.80
2022-09-13T09:49:21.916Z,20.68
2022-09-13T09:50:21.866Z,20.77
2022-09-13T09:51:21.911Z,20.79
2022-09-13T09:52:21.766Z,20.68
2022-09-13T09:53:21.717Z,20.72
2022-09-13T09:54:21.663Z,20.71
2022-09-13T09:55:21.615Z,20.69
2022-09-13T09:56:21.565Z,20.76
2022-09-13T09:57:21.514Z,20.69
2022-09-13T09:58:21.465Z,20.76
2022-09-13T09:59:21.412Z,20.76
2022-09-13T10:00:21.366Z,20.81
2022-09-13T10:01:21.360Z,20.83
2022-09-13T10:02:21.367Z,20.81
2022-09-13T10:03:21.211Z,20.86
2022-09-13T10:04:21.166Z,20.80
2022-09-13T10:05:21.111Z,20.87
2022-09-13T10:06:21.062Z,20.74
2022-09-13T10:07:21.016Z,20.89
2022-09-13T10:08:20.963Z,20.84
2022-09-13T10:09:20.910Z,20.84
2022-09-13T10:10:20.861Z,20.81
2022-09-13T10:11:20.814Z,20.89
2022-09-13T10:12:20.762Z,20.83
2022-09-13T10:13:20.708Z,20.84
2022-09-13T10:14:20.662Z,20.87
2022-09-13T10:15:20.609Z,20.80
2022-09-13T10:16:20.605Z,20.80
2022-09-13T10:17:20.509Z,20.80
2022-09-13T10:18:42.821Z,20.83
2022-09-13T10:19:20.409Z,20.86
2022-09-13T10:20:20.363Z,20.79
2022-09-13T10:21:20.311Z,20.93
2022-09-13T10:22:20.262Z,20.81
2022-09-13T10:23:20.258Z,20.77
2022-09-13T10:24:20.159Z,20.93
2022-09-13T10:25:20.107Z,20.86
2022-09-13T10:26:20.060Z,20.87
2022-09-13T10:27:20.020Z,20.89
2022-09-13T10:28:19.959Z,20.80
2022-09-13T10:29:19.905Z,20.90
2022-09-13T10:30:19.856Z,20.86
2022-09-13T10:31:19.900Z,20.96
2022-09-13T10:32:19.787Z,20.84
2022-09-13T10:33:19.707Z,20.87
2022-09-13T10:34:19.659Z,20.81
2022-09-13T10:35:19.606Z,20.93
2022-09-13T10:36:35.312Z,20.87
2022-09-13T10:37:19.504Z,20.84
2022-09-13T10:38:19.456Z,20.87
2022-09-13T10:39:19.415Z,20.86
2022-09-13T10:40:19.395Z,20.99
2022-09-13T10:41:19.311Z,20.99
2022-09-13T10:42:19.256Z,20.90
2022-09-13T10:43:19.205Z,21.01
2022-09-13T10:44:19.156Z,20.87
2022-09-13T10:45:19.105Z,20.89
2022-09-13T10:46:19.111Z,20.99
2022-09-13T10:47:19.003Z,20.93
2022-09-13T10:48:18.957Z,21.02
2022-09-13T10:49:18.904Z,20.96
2022-09-13T10:50:18.858Z,21.02
2022-09-13T10:51:18.803Z,20.98
2022-09-13T10:52:18.755Z,20.99
2022-09-13T10:53:18.703Z,20.98
2022-09-13T10:54:18.655Z,21.02
2022-09-13T10:55:18.613Z,21.09
2022-09-13T10:56:18.555Z,21.05
2022-09-13T10:57:18.506Z,21.05
2022-09-13T10:58:18.454Z,21.02
2022-09-13T10:59:18.404Z,21.04
2022-09-13T11:00:18.354Z,21.02
2022-09-13T11:01:18.481Z,21.05
2022-09-13T11:02:18.254Z,21.06
2022-09-13T11:03:18.203Z,21.08
2022-09-13T11:04:18.193Z,21.05
2022-09-13T11:05:18.105Z,21.08
2022-09-13T11:06:18.057Z,21.09
2022-09-13T11:07:18.001Z,21.06
2022-09-13T11:08:17.959Z,21.09
2022-09-13T11:09:17.902Z,21.09
2022-09-13T11:10:17.853Z,21.16
2022-09-13T11:11:17.820Z,21.05
2022-09-13T11:12:17.757Z,21.13
2022-09-13T11:13:17.704Z,21.11
2022-09-13T11:14:17.654Z,21.08
2022-09-13T11:15:17.676Z,21.11
2022-09-13T11:16:17.621Z,21.08
2022-09-13T11:17:17.507Z,21.08
2022-09-13T11:18:17.453Z,21.11
2022-09-13T11:19:17.401Z,21.11
2022-09-13T11:20:17.359Z,21.11
2022-09-13T11:21:17.308Z,21.13
2022-09-13T11:22:17.253Z,21.14
2022-09-13T11:23:17.202Z,21.08
2022-09-13T11:24:17.155Z,21.19
2022-09-13T11:25:17.102Z,21.17
2022-09-13T11:26:17.053Z,21.19
2022-09-13T11:27:17.096Z,21.17
2022-09-13T11:28:16.954Z,21.20
2022-09-13T11:29:16.901Z,21.16
2022-09-13T11:30:16.857Z,21.17
2022-09-13T11:31:16.870Z,21.20
2022-09-13T11:32:16.754Z,21.21
2022-09-13T11:33:16.702Z,21.23
2022-09-13T11:34:16.655Z,21.24
2022-09-13T11:35:16.602Z,21.19
2022-09-13T11:36:16.557Z,21.20
2022-09-13T11:37:16.502Z,21.24
2022-09-13T11:38:16.454Z,21.21
2022-09-13T11:39:16.408Z,21.27
2022-09-13T11:40:16.407Z,21.23
2022-09-13T11:41:16.302Z,21.19
2022-09-13T11:42:16.256Z,21.21
2022-09-13T11:43:16.206Z,21.16
2022-09-13T11:44:16.154Z,21.16
2022-09-13T11:45:19.444Z,21.16
2022-09-13T11:46:16.150Z,21.26
2022-09-13T11:47:16.003Z,21.24
2022-09-13T11:48:15.954Z,21.17
2022-09-13T11:49:15.903Z,21.27
2022-09-13T11:50:15.854Z,21.23
2022-09-13T11:51:15.806Z,21.29
2022-09-13T11:52:15.756Z,21.20
2022-09-13T11:53:15.703Z,21.34
2022-09-13T11:54:15.654Z,21.24
2022-09-13T11:55:15.603Z,21.32
2022-09-13T11:56:15.556Z,21.32
2022-09-13T11:57:15.502Z,21.32
2022-09-13T11:58:15.455Z,21.35
2022-09-13T11:59:15.820Z,21.35
2022-09-13T12:00:15.355Z,21.36
2022-09-13T12:01:15.305Z,21.30
2022-09-13T12:02:15.376Z,21.38
2022-09-13T12:03:15.311Z,21.27
2022-09-13T12:04:15.159Z,21.32
2022-09-13T12:05:23.485Z,21.30
2022-09-13T12:06:15.056Z,21.38
2022-09-13T12:07:15.006Z,21.36
2022-09-13T12:08:14.956Z,21.29
2022-09-13T12:09:14.903Z,21.41
2022-09-13T12:10:14.879Z,21.34
2022-09-13T12:11:16.207Z,21.29
2022-09-13T12:12:14.757Z,21.36
2022-09-13T12:13:14.704Z,21.44
2022-09-13T12:14:14.656Z,21.38
2022-09-13T12:15:14.610Z,21.45
2022-09-13T12:16:14.613Z,21.41
2022-09-13T12:17:14.506Z,21.38
2022-09-13T12:18:14.457Z,21.38
2022-09-13T12:19:14.407Z,21.41
2022-09-13T12:20:14.359Z,21.36
2022-09-13T12:21:14.307Z,21.41
2022-09-13T12:22:14.264Z,21.50
2022-09-13T12:23:14.206Z,21.41
2022-09-13T12:24:14.158Z,21.35
2022-09-13T12:25:14.107Z,21.41
2022-09-13T12:26:14.058Z,21.41
2022-09-13T12:27:14.007Z,21.41
2022-09-13T12:28:13.990Z,21.38
2022-09-13T12:29:13.906Z,21.36
2022-09-13T12:30:13.859Z,21.48
2022-09-13T12:31:13.920Z,21.48
2022-09-13T12:32:13.760Z,21.41
2022-09-13T12:33:13.709Z,21.42
2022-09-13T12:34:13.659Z,21.39
2022-09-13T12:35:13.610Z,21.42
2022-09-13T12:36:13.560Z,21.35
2022-09-13T12:37:13.507Z,21.46
2022-09-13T12:38:13.461Z,21.48
2022-09-13T12:39:13.409Z,21.45
2022-09-13T12:40:13.405Z,21.53
2022-09-13T12:41:13.309Z,21.50
2022-09-13T12:42:13.262Z,21.51
2022-09-13T12:43:13.212Z,21.50
2022-09-13T12:44:13.161Z,21.53
2022-09-13T12:45:13.109Z,21.56
2022-09-13T12:46:13.103Z,21.53
2022-09-13T12:47:13.017Z,21.54
2022-09-13T12:48:12.965Z,21.50
2022-09-13T12:49:12.909Z,21.59
2022-09-13T12:51:12.810Z,21.51
2022-09-13T12:52:12.765Z,21.60
2022-09-13T12:53:12.711Z,21.59